Time;durP1;ratioP1;P1;durP2;ratioP2;P2;SDS_P1;SDS_P2;PMS_P1;PMS_P2;Temp;Humidity;BMP_temperature;BMP_pressure;BME280_temperature;BME280_humidity;BME280_pressure;Samples;Min_cycle;Max_cycle;Signal;HPM_P1;HPM_P2
2021/01/25 00:00:20;;;;;;;3.70;3.37;;;2.90;1.00;;;;;;5076185;28;20241;-66
2021/01/25 00:02:45;;;;;;;4.63;3.35;;;2.90;1.00;;;;;;5076610;28;20197;-67
2021/01/25 00:05:12;;;;;;;4.87;3.57;;;3.00;1.00;;;;;;5077057;28;20586;-71
2021/01/25 00:07:37;;;;;;;4.35;3.22;;;3.10;1.00;;;;;;5076496;28;20173;-66
2021/01/25 00:10:07;;;;;;;4.00;3.33;;;3.00;1.00;;;;;;5076338;28;20200;-71
2021/01/25 00:12:33;;;;;;;6.72;3.28;;;2.90;1.00;;;;;;5076450;28;20183;-68
2021/01/25 00:14:58;;;;;;;4.40;3.53;;;3.00;1.00;;;;;;5076324;28;20254;-68
2021/01/25 00:17:24;;;;;;;5.00;3.50;;;3.00;1.00;;;;;;5076369;28;20172;-70
2021/01/25 00:19:49;;;;;;;4.20;3.67;;;3.30;1.00;;;;;;5076218;28;20169;-66
2021/01/25 00:22:15;;;;;;;4.63;3.67;;;3.50;1.00;;;;;;5076186;28;20173;-66
2021/01/25 00:24:41;;;;;;;8.23;3.73;;;3.60;1.00;;;;;;5075851;28;20571;-67
2021/01/25 00:27:06;;;;;;;5.13;2.93;;;3.50;1.00;;;;;;5075947;28;20212;-67
2021/01/25 00:29:32;;;;;;;4.07;3.67;;;3.60;1.00;;;;;;5076105;28;20180;-69
2021/01/25 00:31:58;;;;;;;5.70;4.65;;;3.60;1.00;;;;;;5076090;28;20180;-69
2021/01/25 00:34:25;;;;;;;4.50;3.40;;;3.60;1.00;;;;;;5075610;28;20242;-68
2021/01/25 00:36:51;;;;;;;4.88;3.28;;;3.70;1.00;;;;;;5076266;28;20707;-70
2021/01/25 00:39:17;;;;;;;5.70;5.20;;;4.00;1.00;;;;;;5074880;28;20189;-67
2021/01/25 00:41:42;;;;;;;5.17;4.60;;;3.90;99.90;;;;;;5074974;28;20181;-69
2021/01/25 00:44:08;;;;;;;3.47;3.03;;;3.80;99.90;;;;;;5075784;28;20518;-70
2021/01/25 00:46:33;;;;;;;3.10;2.80;;;3.70;99.90;;;;;;5075788;28;20220;-67
2021/01/25 00:48:59;;;;;;;3.40;2.70;;;3.70;99.90;;;;;;5074784;28;20235;-70
2021/01/25 00:51:24;;;;;;;4.20;3.80;;;3.70;99.90;;;;;;5075742;28;20518;-69
2021/01/25 00:53:50;;;;;;;4.37;3.80;;;3.70;99.90;;;;;;5075194;28;20554;-70
2021/01/25 00:56:15;;;;;;;7.20;3.60;;;3.70;99.90;;;;;;5074517;28;20218;-70
2021/01/25 00:58:41;;;;;;;4.07;3.67;;;3.60;99.90;;;;;;5075421;28;20488;-69
2021/01/25 01:01:07;;;;;;;6.53;3.97;;;3.60;99.90;;;;;;5075293;28;20176;-65
2021/01/25 01:03:33;;;;;;;5.37;3.87;;;3.60;99.90;;;;;;5073979;28;20290;-65
2021/01/25 01:05:59;;;;;;;3.93;3.23;;;3.60;99.90;;;;;;5075894;28;20853;-66
2021/01/25 01:08:24;;;;;;;5.68;4.25;;;3.40;99.90;;;;;;5075137;28;20207;-66
2021/01/25 01:10:50;;;;;;;9.20;5.67;;;3.50;99.90;;;;;;5075152;28;20172;-66
2021/01/25 01:13:16;;;;;;;5.43;4.77;;;3.40;99.90;;;;;;5074967;28;20191;-67
2021/01/25 01:15:42;;;;;;;6.97;4.97;;;3.60;99.90;;;;;;5074128;28;20649;-68
2021/01/25 01:18:07;;;;;;;7.70;6.00;;;3.50;99.90;;;;;;5075038;28;20188;-68
2021/01/25 01:20:33;;;;;;;6.23;4.87;;;3.50;99.90;;;;;;5074817;28;20180;-68
2021/01/25 01:22:58;;;;;;;7.93;4.67;;;3.30;99.90;;;;;;5074852;28;20238;-66
2021/01/25 01:25:24;;;;;;;5.87;4.30;;;3.20;99.90;;;;;;5074769;28;20276;-67
2021/01/25 01:27:50;;;;;;;8.83;4.40;;;3.40;99.90;;;;;;5073906;28;20594;-68
2021/01/25 01:30:16;;;;;;;5.20;4.47;;;3.40;99.90;;;;;;5075153;28;20196;-66
2021/01/25 01:32:42;;;;;;;7.50;3.92;;;3.30;99.90;;;;;;5074892;28;20191;-69
2021/01/25 01:35:07;;;;;;;4.40;4.00;;;3.40;99.90;;;;;;5074450;28;20205;-69
2021/01/25 01:37:34;;;;;;;5.87;4.43;;;3.60;99.90;;;;;;5074762;28;20177;-68
2021/01/25 01:40:03;;;;;;;6.43;4.50;;;3.80;99.90;;;;;;5074612;28;20419;-68
2021/01/25 01:42:28;;;;;;;5.47;4.05;;;3.80;99.90;;;;;;5074531;28;20211;-66
2021/01/25 01:44:54;;;;;;;7.27;4.83;;;3.50;99.90;;;;;;5074026;28;20277;-65
2021/01/25 01:47:21;;;;;;;7.77;4.80;;;3.50;99.90;;;;;;5074766;28;20606;-66
2021/01/25 01:49:49;;;;;;;6.25;5.30;;;3.70;99.90;;;;;;5074702;28;20191;-69
2021/01/25 01:52:15;;;;;;;7.90;5.20;;;3.70;99.90;;;;;;5073261;28;20200;-69
2021/01/25 01:54:40;;;;;;;7.30;5.17;;;3.40;99.90;;;;;;5074276;28;20181;-69
2021/01/25 01:57:07;;;;;;;5.93;4.90;;;3.20;99.90;;;;;;5075024;28;20219;-66
2021/01/25 01:59:33;;;;;;;6.88;5.05;;;3.00;99.90;;;;;;5074493;28;20419;-68
2021/01/25 02:01:58;;;;;;;9.90;5.43;;;3.00;99.90;;;;;;5074694;28;20199;-66
2021/01/25 02:04:25;;;;;;;7.17;5.83;;;2.90;99.90;;;;;;5074091;28;20181;-68
2021/01/25 02:06:53;;;;;;;7.70;5.53;;;2.90;99.90;;;;;;5074594;28;20226;-66
2021/01/25 02:09:19;;;;;;;7.35;6.50;;;2.60;1.00;;;;;;5073444;28;20230;-69
2021/01/25 02:11:45;;;;;;;8.23;5.63;;;2.60;1.00;;;;;;5073250;28;20189;-68
2021/01/25 02:14:11;;;;;;;9.60;5.77;;;2.70;1.00;;;;;;5073847;28;20176;-66
2021/01/25 02:16:39;;;;;;;6.82;5.40;;;2.70;1.00;;;;;;5074233;28;20722;-67
2021/01/25 02:19:08;;;;;;;9.15;7.57;;;2.70;1.00;;;;;;5073985;28;20413;-65
2021/01/25 02:21:34;;;;;;;8.05;6.43;;;2.70;1.00;;;;;;5073929;28;20211;-67
2021/01/25 02:24:23;;;;;;;10.75;7.35;;;2.70;1.00;;;;;;5074112;28;20225;-68
2021/01/25 02:27:07;;;;;;;10.77;7.32;;;2.60;1.00;;;;;;5073760;28;20181;-66
2021/01/25 02:29:33;;;;;;;10.35;6.95;;;2.60;1.00;;;;;;5073887;28;20593;-69
2021/01/25 02:31:59;;;;;;;11.20;8.00;;;2.50;1.00;;;;;;5073585;28;20263;-68
2021/01/25 02:34:26;;;;;;;8.57;6.80;;;2.50;1.00;;;;;;5073524;28;20431;-66
2021/01/25 02:36:52;;;;;;;8.13;7.28;;;2.40;1.00;;;;;;5072649;28;21060;-68
2021/01/25 02:39:19;;;;;;;8.00;6.80;;;2.40;1.00;;;;;;5073725;28;20447;-66
2021/01/25 02:41:45;;;;;;;10.93;8.50;;;2.40;1.00;;;;;;5073811;28;20234;-66
2021/01/25 02:44:12;;;;;;;9.85;7.35;;;2.50;1.00;;;;;;5073524;28;20173;-69
2021/01/25 02:46:38;;;;;;;11.98;8.75;;;2.40;1.00;;;;;;5073853;28;20258;-66
2021/01/25 02:49:03;;;;;;;10.40;8.20;;;2.60;1.00;;;;;;5073624;28;20181;-67
2021/01/25 02:51:29;;;;;;;11.17;8.87;;;2.60;1.00;;;;;;5072447;28;20180;-66
2021/01/25 02:53:54;;;;;;;13.77;9.37;;;2.50;1.00;;;;;;5073014;28;20184;-69
2021/01/25 02:56:21;;;;;;;12.30;8.30;;;2.80;1.00;;;;;;5073031;28;20317;-69
2021/01/25 02:58:47;;;;;;;14.57;9.30;;;2.60;1.00;;;;;;5072389;28;20648;-69
2021/01/25 03:01:12;;;;;;;12.70;9.20;;;2.70;1.00;;;;;;5072456;28;20184;-66
2021/01/25 03:03:40;;;;;;;12.00;8.67;;;2.70;1.00;;;;;;5072099;28;20459;-68
2021/01/25 03:06:07;;;;;;;12.82;9.75;;;2.70;1.00;;;;;;5073503;28;20199;-66
2021/01/25 03:08:32;;;;;;;12.95;9.70;;;2.80;1.00;;;;;;5073487;28;20172;-66
2021/01/25 03:10:58;;;;;;;14.20;10.37;;;2.90;1.00;;;;;;5073349;28;20183;-69
2021/01/25 03:13:26;;;;;;;13.47;9.33;;;2.70;1.00;;;;;;5073097;28;20191;-69
2021/01/25 03:15:55;;;;;;;17.23;10.93;;;2.70;1.00;;;;;;5073229;28;20204;-67
2021/01/25 03:18:21;;;;;;;14.73;10.30;;;2.60;1.00;;;;;;5073506;28;20202;-69
2021/01/25 03:20:49;;;;;;;17.75;12.00;;;2.60;1.00;;;;;;5073397;28;20177;-65
2021/01/25 03:23:14;;;;;;;14.20;10.65;;;2.70;1.00;;;;;;5073129;28;20184;-65
2021/01/25 03:25:40;;;;;;;12.57;10.67;;;2.60;1.00;;;;;;5073169;28;20180;-69
2021/01/25 03:28:05;;;;;;;13.90;10.70;;;2.40;1.00;;;;;;5073316;28;20251;-66
2021/01/25 03:30:31;;;;;;;14.63;10.50;;;2.40;1.00;;;;;;5073495;28;20234;-66
2021/01/25 03:32:56;;;;;;;13.60;11.10;;;2.50;1.00;;;;;;5073001;28;20173;-66
2021/01/25 03:35:22;;;;;;;12.73;9.93;;;2.70;1.00;;;;;;5072789;28;20211;-66
2021/01/25 03:37:48;;;;;;;18.17;12.17;;;2.50;1.00;;;;;;5073046;28;20173;-66
2021/01/25 03:40:13;;;;;;;22.53;12.27;;;2.50;1.00;;;;;;5073040;28;20516;-66
2021/01/25 03:42:39;;;;;;;21.77;13.87;;;2.50;1.00;;;;;;5072959;28;20551;-65
2021/01/25 03:45:06;;;;;;;14.73;12.23;;;2.30;1.00;;;;;;5071878;28;20207;-65
2021/01/25 03:47:31;;;;;;;15.60;12.05;;;2.30;1.00;;;;;;5072854;28;20609;-65
2021/01/25 03:49:57;;;;;;;14.83;11.93;;;2.30;1.00;;;;;;5072974;28;20263;-66
2021/01/25 03:52:24;;;;;;;18.20;12.53;;;2.40;1.00;;;;;;5073030;28;20263;-66
2021/01/25 03:54:50;;;;;;;15.30;11.55;;;2.40;1.00;;;;;;5072675;28;20212;-66
2021/01/25 03:57:16;;;;;;;19.40;12.57;;;2.40;1.00;;;;;;5072823;28;20200;-66
2021/01/25 03:59:42;;;;;;;19.50;12.68;;;2.50;1.00;;;;;;5072906;28;20172;-69
2021/01/25 04:02:07;;;;;;;19.37;13.40;;;2.40;1.00;;;;;;5072083;28;20277;-70
2021/01/25 04:04:33;;;;;;;15.30;12.03;;;2.40;1.00;;;;;;5073423;28;20173;-67
2021/01/25 04:06:59;;;;;;;21.83;12.23;;;2.40;1.00;;;;;;5073516;28;20184;-66
2021/01/25 04:09:24;;;;;;;20.50;12.90;;;2.30;1.00;;;;;;5075648;28;20185;-66
2021/01/25 04:11:50;;;;;;;20.03;12.83;;;2.40;1.00;;;;;;5077059;28;20173;-66
2021/01/25 04:14:15;;;;;;;17.00;10.97;;;2.40;1.00;;;;;;5075572;28;20176;-66
2021/01/25 04:16:41;;;;;;;14.97;12.20;;;2.10;1.00;;;;;;5075913;28;20209;-68
2021/01/25 04:19:07;;;;;;;15.60;10.07;;;2.10;1.00;;;;;;5076902;28;20204;-68
2021/01/25 04:21:32;;;;;;;15.17;11.03;;;2.00;1.00;;;;;;5076874;28;20177;-68
2021/01/25 04:23:58;;;;;;;14.37;11.20;;;2.00;1.00;;;;;;5076698;28;20423;-68
2021/01/25 04:26:24;;;;;;;17.02;10.73;;;2.10;1.00;;;;;;5076679;28;20177;-68
2021/01/25 04:28:50;;;;;;;15.90;9.93;;;2.30;1.00;;;;;;5076760;28;20181;-69
2021/01/25 04:31:15;;;;;;;21.47;11.50;;;2.30;1.00;;;;;;5076469;28;20181;-69
2021/01/25 04:33:41;;;;;;;15.40;10.43;;;2.40;1.00;;;;;;5076420;28;20185;-68
2021/01/25 04:36:08;;;;;;;16.63;11.40;;;2.20;1.00;;;;;;5076256;28;20262;-68
2021/01/25 04:38:34;;;;;;;16.42;10.32;;;2.20;1.00;;;;;;5076540;28;20415;-69
2021/01/25 04:41:01;;;;;;;15.77;9.98;;;2.10;1.00;;;;;;5076449;28;20212;-69
2021/01/25 04:43:28;;;;;;;14.55;11.00;;;2.20;1.00;;;;;;5075364;28;20177;-68
2021/01/25 04:45:54;;;;;;;12.80;9.65;;;2.20;1.00;;;;;;5074338;28;20184;-69
2021/01/25 04:48:21;;;;;;;15.73;10.25;;;2.10;1.00;;;;;;5075046;28;20192;-68
2021/01/25 04:50:49;;;;;;;17.58;10.00;;;2.10;1.00;;;;;;5075206;28;20242;-69
2021/01/25 04:53:16;;;;;;;15.60;10.20;;;2.20;1.00;;;;;;5075739;28;20195;-68
2021/01/25 04:55:42;;;;;;;17.80;11.32;;;2.30;1.00;;;;;;5075792;28;20838;-69
2021/01/25 04:58:08;;;;;;;14.93;11.13;;;2.30;1.00;;;;;;5076076;28;20184;-69
2021/01/25 05:00:34;;;;;;;14.27;9.70;;;2.50;1.00;;;;;;5076017;28;20177;-70
2021/01/25 05:03:00;;;;;;;13.90;10.73;;;2.50;1.00;;;;;;5075730;28;20219;-71
2021/01/25 05:05:25;;;;;;;15.03;10.30;;;2.40;1.00;;;;;;5075557;28;20287;-70
2021/01/25 05:07:51;;;;;;;12.17;9.63;;;2.50;1.00;;;;;;5075812;28;20191;-70
2021/01/25 05:10:17;;;;;;;18.00;10.37;;;2.60;1.00;;;;;;5074520;28;20196;-69
2021/01/25 05:12:47;;;;;;;13.80;9.80;;;2.60;1.00;;;;;;5075826;28;20177;-69
2021/01/25 05:15:30;;;;;;;12.13;9.75;;;2.50;1.00;;;;;;5075275;28;20505;-69
2021/01/25 05:18:00;;;;;;;14.98;10.05;;;2.50;1.00;;;;;;5075527;28;20198;-69
2021/01/25 05:20:30;;;;;;;14.88;10.82;;;2.40;1.00;;;;;;5073303;28;20179;-69
2021/01/25 05:22:58;;;;;;;13.80;9.45;;;2.60;1.00;;;;;;5075519;28;20173;-69
2021/01/25 05:25:35;;;;;;;15.13;9.20;;;2.50;1.00;;;;;;5075380;28;20503;-69
2021/01/25 05:28:01;;;;;;;11.63;8.20;;;2.50;1.00;;;;;;5075317;28;20557;-68
2021/01/25 05:30:28;;;;;;;18.02;9.10;;;2.20;1.00;;;;;;5074998;28;20641;-70
2021/01/25 05:32:56;;;;;;;16.80;10.38;;;2.30;1.00;;;;;;5075084;28;20193;-70
2021/01/25 05:35:32;;;;;;;13.40;9.15;;;2.30;1.00;;;;;;5075057;28;20235;-67
2021/01/25 05:37:58;;;;;;;12.88;9.55;;;2.20;1.00;;;;;;5074832;28;20191;-68
2021/01/25 05:40:26;;;;;;;18.35;8.55;;;2.00;1.00;;;;;;5074728;28;20177;-69
2021/01/25 05:42:53;;;;;;;16.08;10.95;;;2.10;1.00;;;;;;5074701;28;20263;-68
2021/01/25 05:45:20;;;;;;;19.27;11.45;;;1.90;1.00;;;;;;5074139;28;20195;-68
2021/01/25 05:47:53;;;;;;;15.80;10.82;;;2.10;1.00;;;;;;5074430;28;20609;-68
2021/01/25 05:50:39;;;;;;;12.40;8.45;;;2.10;1.00;;;;;;5074512;28;20181;-68
2021/01/25 05:53:09;;;;;;;16.52;11.45;;;2.00;1.00;;;;;;5074247;28;20276;-68
2021/01/25 05:55:35;;;;;;;16.63;11.35;;;2.10;1.00;;;;;;5074327;28;20280;-68
2021/01/25 05:58:02;;;;;;;15.60;9.80;;;2.30;1.00;;;;;;5073417;28;20176;-68
2021/01/25 06:00:28;;;;;;;20.88;10.25;;;2.30;1.00;;;;;;5074191;28;20180;-65
2021/01/25 06:02:55;;;;;;;15.38;10.68;;;2.20;1.00;;;;;;5073374;28;20278;-68
2021/01/25 06:05:24;;;;;;;16.60;9.98;;;2.20;1.00;;;;;;5073008;28;20181;-68
2021/01/25 06:07:50;;;;;;;14.65;9.85;;;2.50;1.00;;;;;;5074096;28;20192;-69
2021/01/25 06:10:25;;;;;;;15.15;10.75;;;2.50;1.00;;;;;;5074014;28;20561;-68
2021/01/25 06:13:00;;;;;;;13.90;9.68;;;2.50;1.00;;;;;;5074001;28;20187;-68
2021/01/25 06:15:29;;;;;;;17.77;11.13;;;2.40;1.00;;;;;;5073792;28;20253;-68
2021/01/25 06:17:58;;;;;;;16.45;10.75;;;2.30;1.00;;;;;;5073989;28;20257;-68
2021/01/25 06:20:27;;;;;;;15.15;10.27;;;2.30;1.00;;;;;;5073983;28;20173;-69
2021/01/25 06:22:53;;;;;;;16.65;10.15;;;2.40;1.00;;;;;;5072729;28;20177;-67
2021/01/25 06:25:19;;;;;;;19.60;12.33;;;2.50;1.00;;;;;;5073517;28;20180;-67
2021/01/25 06:27:45;;;;;;;34.40;16.58;;;2.60;1.00;;;;;;5073937;28;20433;-69
2021/01/25 06:30:12;;;;;;;26.77;14.20;;;2.70;1.00;;;;;;5072700;28;20225;-69
2021/01/25 06:32:43;;;;;;;14.73;9.52;;;2.70;1.00;;;;;;5073320;28;20200;-69
2021/01/25 06:35:13;;;;;;;17.08;11.45;;;2.60;1.00;;;;;;5072484;28;20207;-69
2021/01/25 06:37:39;;;;;;;42.08;25.27;;;2.80;1.00;;;;;;5073514;28;20204;-68
2021/01/25 06:40:06;;;;;;;20.27;11.50;;;2.80;1.00;;;;;;5072594;28;20189;-70
2021/01/25 06:42:33;;;;;;;27.38;13.35;;;2.80;1.00;;;;;;5073580;28;20195;-70
2021/01/25 06:45:03;;;;;;;16.63;11.27;;;3.10;1.00;;;;;;5072197;28;20176;-70
2021/01/25 06:47:30;;;;;;;15.45;9.18;;;2.90;1.00;;;;;;5073371;28;20180;-70
2021/01/25 06:49:58;;;;;;;16.35;10.40;;;3.00;1.00;;;;;;5073450;28;20180;-69
2021/01/25 06:52:27;;;;;;;15.00;10.82;;;3.00;1.00;;;;;;5073481;28;20177;-65
2021/01/25 06:55:04;;;;;;;13.23;9.32;;;3.00;1.00;;;;;;5073137;28;20189;-66
2021/01/25 06:57:33;;;;;;;16.33;10.70;;;3.00;1.00;;;;;;5073573;28;20180;-66
2021/01/25 07:00:14;;;;;;;17.23;10.70;;;3.10;1.00;;;;;;5073763;28;20219;-66
2021/01/25 07:03:00;;;;;;;15.25;11.27;;;2.80;99.90;;;;;;5074598;28;20625;-62
2021/01/25 07:05:35;;;;;;;15.13;9.30;;;2.50;1.00;;;;;;5073277;28;20200;-65
2021/01/25 07:08:20;;;;;;;16.50;9.80;;;2.50;1.00;;;;;;5073162;28;20188;-66
2021/01/25 07:11:00;;;;;;;13.23;10.00;;;2.40;1.00;;;;;;5074225;28;20184;-61
2021/01/25 07:13:33;;;;;;;14.45;10.32;;;2.40;1.00;;;;;;5074068;28;20183;-61
2021/01/25 07:15:59;;;;;;;18.02;11.52;;;2.40;1.00;;;;;;5073799;28;20212;-66
2021/01/25 07:18:27;;;;;;;16.70;10.00;;;2.40;1.00;;;;;;5072892;28;20564;-66
2021/01/25 07:20:54;;;;;;;18.00;10.57;;;2.60;1.00;;;;;;5073190;28;20427;-64
2021/01/25 07:23:22;;;;;;;15.90;10.05;;;2.50;1.00;;;;;;5072935;28;20609;-62
2021/01/25 07:26:02;;;;;;;14.02;10.30;;;2.50;1.00;;;;;;5072405;28;20208;-62
2021/01/25 07:28:29;;;;;;;14.70;9.43;;;2.60;1.00;;;;;;5071490;28;20188;-61
2021/01/25 07:30:55;;;;;;;15.65;10.25;;;2.50;1.00;;;;;;5072983;28;20216;-62
2021/01/25 07:33:22;;;;;;;15.60;9.60;;;2.40;1.00;;;;;;5072711;28;20215;-63
2021/01/25 07:35:49;;;;;;;12.32;9.30;;;2.40;1.00;;;;;;5071839;28;20463;-64
2021/01/25 07:38:14;;;;;;;12.63;9.00;;;2.30;1.00;;;;;;5071936;28;20181;-64
2021/01/25 07:40:43;;;;;;;14.40;9.02;;;2.30;1.00;;;;;;5080796;28;20613;-63
2021/01/25 07:43:10;;;;;;;16.55;11.77;;;2.40;1.00;;;;;;5071824;28;20179;-61
2021/01/25 07:45:35;;;;;;;17.80;12.23;;;2.50;1.00;;;;;;5076951;28;20639;-64
2021/01/25 07:48:01;;;;;;;13.80;10.57;;;2.40;1.00;;;;;;5076437;28;20483;-66
2021/01/25 07:50:27;;;;;;;14.90;10.73;;;2.30;1.00;;;;;;5076627;28;20172;-67
2021/01/25 07:53:00;;;;;;;13.80;10.00;;;2.30;1.00;;;;;;5075767;28;20267;-66
2021/01/25 07:55:27;;;;;;;14.20;9.05;;;2.20;1.00;;;;;;5076153;28;20203;-66
2021/01/25 07:57:53;;;;;;;18.05;10.73;;;2.20;1.00;;;;;;5076423;28;20185;-62
2021/01/25 08:00:19;;;;;;;15.43;10.90;;;2.10;1.00;;;;;;5076485;28;20177;-62
2021/01/25 08:03:04;;;;;;;14.82;10.20;;;2.20;1.00;;;;;;5076053;28;20796;-67
2021/01/25 08:05:30;;;;;;;18.70;11.77;;;2.00;1.00;;;;;;5076121;28;20213;-66
2021/01/25 08:07:56;;;;;;;17.35;11.52;;;2.30;1.00;;;;;;5076627;28;20195;-65
2021/01/25 08:10:23;;;;;;;18.90;11.02;;;2.30;1.00;;;;;;5076630;28;20180;-64
2021/01/25 08:12:49;;;;;;;13.95;12.20;;;2.20;1.00;;;;;;5076732;28;20279;-63
2021/01/25 08:15:29;;;;;;;17.48;12.27;;;2.30;1.00;;;;;;5076193;28;20208;-61
2021/01/25 08:17:58;;;;;;;18.92;12.70;;;2.30;1.00;;;;;;5076674;28;20575;-61
2021/01/25 08:20:28;;;;;;;27.02;15.25;;;2.30;1.00;;;;;;5076628;28;20582;-67
2021/01/25 08:22:55;;;;;;;18.45;12.20;;;2.60;1.00;;;;;;5076158;28;20181;-65
2021/01/25 08:25:24;;;;;;;19.42;13.25;;;2.70;1.00;;;;;;5076432;28;20181;-66
2021/01/25 08:28:12;;;;;;;26.60;18.90;;;2.70;1.00;;;;;;5076320;28;20215;-67
2021/01/25 08:30:44;;;;;;;18.58;13.02;;;2.50;1.00;;;;;;5076391;28;20180;-64
2021/01/25 08:33:12;;;;;;;15.27;10.40;;;2.60;1.00;;;;;;5075021;28;20276;-67
2021/01/25 08:35:53;;;;;;;17.35;12.55;;;2.60;1.00;;;;;;5076197;28;20196;-64
2021/01/25 08:38:27;;;;;;;21.13;13.25;;;2.70;1.00;;;;;;5076282;28;20947;-66
2021/01/25 08:40:54;;;;;;;17.90;12.57;;;2.80;1.00;;;;;;5076879;28;20180;-67
2021/01/25 08:43:24;;;;;;;21.33;12.93;;;2.70;1.00;;;;;;5075539;28;20489;-65
2021/01/25 08:45:51;;;;;;;89.10;43.20;;;2.70;1.00;;;;;;5075882;28;20575;-65
2021/01/25 08:48:27;;;;;;;64.65;31.02;;;2.90;1.00;;;;;;5076002;28;20217;-64
2021/01/25 08:50:53;;;;;;;23.85;14.60;;;2.90;1.00;;;;;;5075875;28;20241;-68
2021/01/25 08:53:29;;;;;;;22.48;12.85;;;2.80;1.00;;;;;;5075885;28;20192;-66
2021/01/25 08:55:57;;;;;;;18.33;11.77;;;2.70;1.00;;;;;;5075730;28;20544;-67
2021/01/25 08:58:29;;;;;;;20.27;13.27;;;2.70;1.00;;;;;;5075799;28;20176;-67
2021/01/25 09:00:55;;;;;;;17.73;11.38;;;2.70;1.00;;;;;;5074744;28;20634;-67
2021/01/25 09:03:23;;;;;;;19.63;13.73;;;2.50;99.90;;;;;;5075295;28;20197;-62
2021/01/25 09:05:51;;;;;;;20.50;15.05;;;2.50;1.00;;;;;;5075927;28;20188;-63
2021/01/25 09:08:16;;;;;;;19.85;12.95;;;2.50;1.00;;;;;;5075464;28;20519;-61
2021/01/25 09:10:42;;;;;;;16.37;10.93;;;2.60;1.00;;;;;;5075680;28;20199;-61
2021/01/25 09:13:07;;;;;;;15.63;11.10;;;2.70;1.00;;;;;;5074054;28;20204;-61
2021/01/25 09:15:33;;;;;;;16.57;9.40;;;2.70;1.00;;;;;;5075391;28;20213;-61
2021/01/25 09:17:58;;;;;;;13.00;9.73;;;2.30;99.90;;;;;;5075332;28;20651;-62
2021/01/25 09:20:25;;;;;;;16.87;10.73;;;2.30;1.00;;;;;;5075659;28;20192;-63
2021/01/25 09:22:51;;;;;;;15.30;11.43;;;2.40;1.00;;;;;;5075154;28;20545;-66
2021/01/25 09:25:18;;;;;;;14.95;9.70;;;2.20;1.00;;;;;;5075709;28;20176;-63
2021/01/25 09:27:44;;;;;;;11.18;8.45;;;2.30;1.00;;;;;;5075437;28;20222;-61
2021/01/25 09:30:13;;;;;;;14.43;9.73;;;2.70;1.00;;;;;;5074197;28;20265;-63
2021/01/25 09:32:39;;;;;;;11.52;8.93;;;2.60;1.00;;;;;;5075655;28;20241;-63
2021/01/25 09:35:07;;;;;;;18.95;9.07;;;2.40;1.00;;;;;;5075891;28;20326;-64
2021/01/25 09:37:33;;;;;;;15.10;9.75;;;2.20;1.00;;;;;;5074248;28;20314;-65
2021/01/25 09:39:58;;;;;;;17.40;11.27;;;2.10;1.00;;;;;;5074410;28;20557;-65
2021/01/25 09:42:24;;;;;;;15.90;9.43;;;2.30;1.00;;;;;;5075500;28;20198;-65
2021/01/25 09:44:49;;;;;;;18.23;10.00;;;2.60;1.00;;;;;;5074724;28;20219;-66
2021/01/25 09:47:15;;;;;;;18.87;11.00;;;2.80;1.00;;;;;;5073770;28;20546;-66
2021/01/25 09:49:41;;;;;;;14.73;9.10;;;3.10;1.00;;;;;;5073865;28;20574;-63
2021/01/25 09:52:06;;;;;;;16.93;10.40;;;3.10;1.00;;;;;;5074735;28;20189;-63
2021/01/25 09:54:32;;;;;;;15.60;10.13;;;2.90;99.90;;;;;;5074829;28;20531;-67
2021/01/25 09:56:57;;;;;;;14.30;7.97;;;2.60;99.90;;;;;;5073995;28;20296;-65
2021/01/25 09:59:23;;;;;;;13.00;9.03;;;2.60;99.90;;;;;;5074289;28;20173;-66
2021/01/25 10:01:49;;;;;;;15.90;9.07;;;2.60;99.90;;;;;;5074658;28;20545;-65
2021/01/25 10:04:14;;;;;;;14.30;10.40;;;2.90;1.00;;;;;;5073392;28;20672;-64
2021/01/25 10:06:40;;;;;;;18.57;10.57;;;2.70;99.90;;;;;;5072951;28;20176;-65
2021/01/25 10:09:06;;;;;;;15.90;10.70;;;2.80;99.90;;;;;;5073292;28;20630;-64
2021/01/25 10:11:31;;;;;;;16.07;11.77;;;2.70;99.90;;;;;;5074816;28;20177;-62
2021/01/25 10:13:58;;;;;;;18.00;11.80;;;2.70;99.90;;;;;;5074068;28;20434;-64
2021/01/25 10:16:23;;;;;;;18.50;12.23;;;2.80;99.90;;;;;;5074354;28;20204;-65
2021/01/25 10:18:50;;;;;;;13.67;10.93;;;2.90;99.90;;;;;;5073661;28;20227;-64
2021/01/25 10:21:17;;;;;;;16.23;10.77;;;3.00;99.90;;;;;;5073844;28;20286;-63
2021/01/25 10:23:47;;;;;;;16.73;11.40;;;2.90;99.90;;;;;;5073737;28;20519;-64
2021/01/25 10:26:13;;;;;;;19.45;11.85;;;3.20;99.90;;;;;;5073239;28;20253;-64
2021/01/25 10:28:38;;;;;;;51.07;26.23;;;3.20;99.90;;;;;;5073440;28;20610;-62
2021/01/25 10:31:04;;;;;;;21.97;13.67;;;3.20;99.90;;;;;;5072962;28;20438;-64
2021/01/25 10:33:29;;;;;;;14.23;11.80;;;3.00;99.90;;;;;;5072395;28;20188;-62
2021/01/25 10:35:55;;;;;;;19.47;11.10;;;3.10;99.90;;;;;;5073572;28;20266;-64
2021/01/25 10:38:21;;;;;;;12.33;8.67;;;3.20;99.90;;;;;;5073541;28;20207;-63
2021/01/25 10:40:46;;;;;;;14.17;9.13;;;3.10;52.60;;;;;;5072494;28;20196;-68
2021/01/25 10:43:12;;;;;;;11.40;9.27;;;2.80;99.90;;;;;;5091726;28;20196;-66
2021/01/25 10:45:37;;;;;;;14.83;10.40;;;2.60;99.90;;;;;;5078687;28;20181;-63
2021/01/25 10:48:04;;;;;;;16.97;12.17;;;2.50;99.90;;;;;;5079435;28;20244;-64
2021/01/25 10:50:32;;;;;;;12.82;10.20;;;2.60;99.90;;;;;;5071244;28;20196;-63
2021/01/25 10:52:58;;;;;;;14.70;8.77;;;2.70;99.90;;;;;;5073529;28;20679;-68
2021/01/25 10:55:23;;;;;;;13.80;10.17;;;2.70;99.90;;;;;;5076051;28;20204;-67
2021/01/25 10:57:49;;;;;;;12.90;9.67;;;2.70;99.90;;;;;;5073609;28;20204;-65
2021/01/25 11:00:18;;;;;;;17.60;10.20;;;2.80;99.90;;;;;;5070390;28;20173;-64
2021/01/25 11:02:44;;;;;;;12.20;8.38;;;2.80;99.90;;;;;;5064679;28;20193;-66
2021/01/25 11:05:12;;;;;;;13.68;9.15;;;2.90;1.00;;;;;;5064267;28;20256;-67
2021/01/25 11:07:38;;;;;;;15.15;8.82;;;3.30;99.90;;;;;;5064354;28;20180;-64
2021/01/25 11:10:05;;;;;;;13.10;9.40;;;3.30;99.90;;;;;;5066364;28;20184;-64
2021/01/25 11:12:31;;;;;;;12.93;10.05;;;3.30;99.90;;;;;;5064348;28;20192;-64
2021/01/25 11:14:57;;;;;;;11.70;9.90;;;3.30;99.90;;;;;;5070072;28;20172;-64
2021/01/25 11:17:22;;;;;;;16.03;10.17;;;3.30;8.00;;;;;;5063951;28;20208;-64
2021/01/25 11:19:48;;;;;;;12.93;8.57;;;3.40;1.00;;;;;;5066764;28;20177;-64
2021/01/25 11:22:14;;;;;;;21.73;13.53;;;3.50;1.00;;;;;;5078860;28;20499;-70
2021/01/25 11:24:39;;;;;;;14.80;10.07;;;3.40;1.00;;;;;;5083434;28;20169;-70
2021/01/25 11:27:06;;;;;;;14.93;10.30;;;3.30;1.00;;;;;;5072125;28;20430;-66
2021/01/25 11:29:32;;;;;;;10.65;8.25;;;3.20;1.00;;;;;;5078041;28;20188;-64
2021/01/25 11:32:01;;;;;;;13.00;10.00;;;3.30;27.20;;;;;;5060335;28;20180;-66
2021/01/25 11:34:27;;;;;;;15.75;10.00;;;3.00;1.00;;;;;;5058321;28;20182;-65
2021/01/25 11:36:56;;;;;;;17.65;12.98;;;3.00;99.90;;;;;;5057432;28;20209;-67
2021/01/25 11:39:24;;;;;;;81.20;41.70;;;3.10;99.90;;;;;;5070401;28;20207;-65
2021/01/25 11:41:49;;;;;;;113.05;51.58;;;3.30;99.90;;;;;;5075412;28;20194;-67
2021/01/25 11:44:15;;;;;;;19.40;12.83;;;3.60;99.90;;;;;;5077504;28;20263;-66
2021/01/25 11:46:40;;;;;;;16.80;10.10;;;3.80;99.90;;;;;;5077098;28;20283;-68
2021/01/25 11:49:06;;;;;;;10.97;9.00;;;3.60;1.00;;;;;;5077016;28;20212;-67
2021/01/25 11:52:07;;;;;;;13.93;8.40;;;3.30;1.00;;;;;;5078552;28;20189;-66
2021/01/25 11:54:33;;;;;;;11.65;8.27;;;3.20;1.00;;;;;;5056631;28;20192;-68
2021/01/25 11:56:59;;;;;;;12.60;8.90;;;3.00;40.70;;;;;;5058910;28;20204;-66
2021/01/25 11:59:25;;;;;;;12.68;7.95;;;3.30;99.90;;;;;;5076959;28;20180;-65
2021/01/25 12:01:50;;;;;;;12.07;8.30;;;3.50;99.90;;;;;;5076418;28;20314;-65
2021/01/25 12:04:16;;;;;;;12.47;8.33;;;3.70;96.10;;;;;;5075182;28;20195;-66
2021/01/25 12:06:53;;;;;;;14.23;9.20;;;3.80;1.00;;;;;;5076949;28;20280;-68
2021/01/25 12:09:22;;;;;;;11.30;8.68;;;3.80;1.00;;;;;;5076168;28;20199;-64
2021/01/25 12:11:47;;;;;;;16.15;10.15;;;3.90;1.00;;;;;;5076982;28;20177;-65
2021/01/25 12:14:13;;;;;;;15.67;10.07;;;4.10;1.00;;;;;;5074937;28;20207;-60
2021/01/25 12:16:38;;;;;;;14.77;9.47;;;4.20;99.90;;;;;;5076292;28;20335;-62
2021/01/25 12:19:04;;;;;;;13.43;9.90;;;3.90;1.00;;;;;;5057540;28;20230;-64
2021/01/25 12:21:29;;;;;;;16.87;11.00;;;3.70;11.30;;;;;;5056668;28;20563;-64
2021/01/25 12:23:56;;;;;;;14.10;10.83;;;3.90;1.00;;;;;;5056157;28;20246;-64
2021/01/25 12:26:22;;;;;;;13.82;9.93;;;4.00;1.00;;;;;;5056522;28;20261;-64
2021/01/25 12:28:48;;;;;;;16.17;10.13;;;4.10;99.90;;;;;;5074005;28;20219;-65
2021/01/25 12:31:14;;;;;;;13.37;10.20;;;4.20;99.90;;;;;;5075007;28;20488;-64
2021/01/25 12:33:39;;;;;;;14.43;9.90;;;4.50;99.90;;;;;;5075889;28;20564;-65
2021/01/25 12:36:06;;;;;;;16.48;10.82;;;4.80;1.00;;;;;;5076334;28;20470;-64
2021/01/25 12:38:33;;;;;;;14.60;9.52;;;4.70;1.00;;;;;;5075690;28;20205;-63
2021/01/25 12:40:59;;;;;;;14.15;10.00;;;4.70;1.00;;;;;;5076755;28;20180;-62
2021/01/25 12:43:24;;;;;;;17.40;12.77;;;4.60;1.00;;;;;;5075719;28;20177;-62
2021/01/25 12:45:50;;;;;;;13.40;9.63;;;4.50;62.40;;;;;;5074868;28;20508;-63
2021/01/25 12:48:16;;;;;;;13.83;9.80;;;4.70;99.90;;;;;;5075707;28;20181;-63
2021/01/25 12:50:44;;;;;;;14.63;9.10;;;4.60;9.80;;;;;;5075519;28;20181;-62